createdAt,value
2022-11-09T00:00:43.493Z,9.00
2022-11-09T00:03:11.304Z,9.10
2022-11-09T00:05:38.458Z,9.00
2022-11-09T00:08:06.800Z,9.10
2022-11-09T00:10:34.159Z,8.00
2022-11-09T00:13:01.890Z,9.00
2022-11-09T00:15:29.076Z,9.00
2022-11-09T00:17:55.927Z,8.90
2022-11-09T00:20:22.718Z,9.00
2022-11-09T00:22:50.397Z,9.00
2022-11-09T00:25:17.879Z,9.00
2022-11-09T00:27:44.689Z,8.90
2022-11-09T00:30:12.266Z,8.80
2022-11-09T00:32:39.139Z,8.80
2022-11-09T00:35:06.396Z,8.90
2022-11-09T00:37:33.352Z,8.70
2022-11-09T00:40:00.234Z,8.80
2022-11-09T00:42:27.019Z,8.70
2022-11-09T00:44:53.798Z,8.60
2022-11-09T00:47:20.640Z,8.60
2022-11-09T00:49:47.445Z,8.50
2022-11-09T00:52:14.236Z,8.30
2022-11-09T00:54:40.975Z,8.30
2022-11-09T00:57:07.812Z,8.40
2022-11-09T00:59:34.568Z,8.20
2022-11-09T01:02:01.319Z,8.30
2022-11-09T01:04:28.079Z,8.20
2022-11-09T01:06:54.959Z,8.30
2022-11-09T01:09:22.128Z,8.20
2022-11-09T01:11:49.276Z,8.20
2022-11-09T01:14:16.168Z,8.20
2022-11-09T01:16:42.984Z,8.30
2022-11-09T01:19:09.870Z,8.40
2022-11-09T01:21:36.591Z,8.30
2022-11-09T01:24:04.578Z,8.40
2022-11-09T01:26:31.713Z,8.40
2022-11-09T01:28:58.465Z,8.40
2022-11-09T01:31:25.269Z,8.40
2022-11-09T01:33:52.050Z,8.40
2022-11-09T01:36:24.036Z,8.40
2022-11-09T01:38:51.277Z,8.40
2022-11-09T01:41:25.499Z,8.40
2022-11-09T01:44:12.228Z,8.30
2022-11-09T01:46:59.084Z,8.20
2022-11-09T01:49:44.034Z,8.10
2022-11-09T01:52:19.565Z,8.20
2022-11-09T01:54:52.157Z,8.30
2022-11-09T01:57:31.563Z,8.30
2022-11-09T02:00:13.441Z,8.30
2022-11-09T02:02:55.568Z,8.40
2022-11-09T02:05:26.446Z,8.40
2022-11-09T02:07:54.007Z,8.20
2022-11-09T02:10:32.927Z,8.10
2022-11-09T02:13:14.287Z,8.20
2022-11-09T02:15:45.426Z,8.20
2022-11-09T02:18:13.762Z,8.10
2022-11-09T02:20:52.306Z,8.00
2022-11-09T02:23:19.885Z,8.00
2022-11-09T02:25:51.406Z,8.00
2022-11-09T02:28:18.785Z,8.10
2022-11-09T02:30:49.091Z,8.00
2022-11-09T02:33:16.220Z,8.00
2022-11-09T02:35:43.263Z,8.00
2022-11-09T02:38:11.982Z,8.00
2022-11-09T02:40:41.627Z,7.90
2022-11-09T02:43:10.739Z,7.90
2022-11-09T02:45:38.360Z,7.80
2022-11-09T02:48:06.045Z,7.70
2022-11-09T02:50:32.920Z,7.70
2022-11-09T02:52:59.733Z,7.70
2022-11-09T02:55:26.910Z,7.80
2022-11-09T02:57:53.758Z,7.80
2022-11-09T03:00:20.712Z,7.80
2022-11-09T03:02:47.478Z,7.80
2022-11-09T03:05:14.454Z,7.80
2022-11-09T03:07:41.217Z,7.80
2022-11-09T03:10:08.338Z,7.80
2022-11-09T03:12:35.545Z,7.70
2022-11-09T03:15:05.122Z,7.50
2022-11-09T03:17:32.486Z,7.50
2022-11-09T03:19:59.424Z,7.50
2022-11-09T03:22:26.287Z,7.50
2022-11-09T03:24:53.032Z,7.50
2022-11-09T03:27:20.222Z,7.50
2022-11-09T03:29:46.973Z,7.50
2022-11-09T03:32:13.776Z,7.50
2022-11-09T03:34:40.543Z,7.40
2022-11-09T03:37:07.754Z,7.40
2022-11-09T03:39:34.956Z,7.50
2022-11-09T03:42:01.753Z,7.50
2022-11-09T03:44:29.127Z,7.50
2022-11-09T03:46:55.902Z,7.60
2022-11-09T03:49:23.878Z,7.60
2022-11-09T03:51:51.494Z,7.60
2022-11-09T03:54:18.247Z,7.60
2022-11-09T03:56:45.091Z,7.50
2022-11-09T03:59:11.820Z,7.60
2022-11-09T04:01:39.053Z,7.50
2022-11-09T04:04:05.899Z,7.40
2022-11-09T04:06:32.708Z,7.30
2022-11-09T04:08:59.919Z,7.40
2022-11-09T04:11:27.230Z,7.20
2022-11-09T04:13:53.997Z,7.30
2022-11-09T04:16:20.812Z,7.20
2022-11-09T04:18:49.305Z,7.20
2022-11-09T04:21:20.213Z,7.20
2022-11-09T04:23:49.879Z,7.20
2022-11-09T04:26:17.242Z,7.20
2022-11-09T04:28:43.990Z,7.10
2022-11-09T04:31:10.774Z,7.30
2022-11-09T04:33:37.513Z,7.20
2022-11-09T04:36:05.468Z,7.20
2022-11-09T04:38:32.362Z,7.30
2022-11-09T04:41:04.743Z,7.40
2022-11-09T04:43:31.634Z,7.50
2022-11-09T04:46:02.718Z,7.60
2022-11-09T04:48:30.916Z,7.60
2022-11-09T04:51:05.429Z,7.60
2022-11-09T04:53:32.893Z,7.60
2022-11-09T04:56:00.440Z,7.60
2022-11-09T04:58:27.365Z,7.60
2022-11-09T05:00:54.788Z,7.60
2022-11-09T05:03:22.393Z,7.70
2022-11-09T05:05:49.420Z,7.70
2022-11-09T05:08:16.176Z,7.60
2022-11-09T05:10:43.380Z,7.70
2022-11-09T05:13:13.017Z,7.70
2022-11-09T05:15:40.653Z,7.70
2022-11-09T05:18:08.501Z,7.80
2022-11-09T05:20:36.492Z,7.90
2022-11-09T05:23:23.167Z,7.90
2022-11-09T05:25:50.251Z,7.90
2022-11-09T05:28:17.243Z,7.80
2022-11-09T05:30:44.165Z,7.80
2022-11-09T05:33:10.908Z,7.70
2022-11-09T05:35:38.211Z,7.70
2022-11-09T05:38:05.116Z,7.80
2022-11-09T05:40:32.356Z,7.60
2022-11-09T05:42:59.580Z,7.70
2022-11-09T05:45:43.726Z,7.60
2022-11-09T05:48:15.918Z,7.60
2022-11-09T05:50:43.050Z,7.70
2022-11-09T05:53:11.215Z,7.60
2022-11-09T05:55:38.545Z,7.50
2022-11-09T05:58:06.034Z,7.50
2022-11-09T06:00:33.671Z,7.50
2022-11-09T06:03:09.680Z,7.60
2022-11-09T06:05:38.476Z,7.50
2022-11-09T06:08:11.279Z,7.60
2022-11-09T06:10:38.089Z,8.30
2022-11-09T06:13:05.218Z,7.60
2022-11-09T06:15:32.721Z,7.70
2022-11-09T06:17:59.953Z,7.80
2022-11-09T06:20:28.542Z,7.90
2022-11-09T06:23:03.455Z,7.90
2022-11-09T06:25:32.360Z,8.00
2022-11-09T06:27:59.648Z,8.00
2022-11-09T06:30:26.847Z,8.10
2022-11-09T06:32:59.443Z,8.20
2022-11-09T06:35:26.652Z,8.40
2022-11-09T06:38:00.619Z,8.50
2022-11-09T06:40:28.384Z,8.60
2022-11-09T06:42:59.833Z,8.70
2022-11-09T06:45:28.859Z,8.90
2022-11-09T06:47:57.276Z,9.00
2022-11-09T06:50:25.397Z,9.00
2022-11-09T06:52:57.103Z,9.10
2022-11-09T06:55:23.910Z,9.20
2022-11-09T06:57:50.685Z,9.10
2022-11-09T07:00:18.093Z,9.10
2022-11-09T07:02:44.956Z,9.10
2022-11-09T07:05:11.746Z,9.10
2022-11-09T07:07:38.506Z,9.10
2022-11-09T07:10:05.781Z,9.20
2022-11-09T07:12:34.708Z,9.40
2022-11-09T07:15:02.290Z,9.50
2022-11-09T07:17:33.592Z,9.60
2022-11-09T07:20:01.390Z,9.70
2022-11-09T07:22:28.634Z,9.80
2022-11-09T07:24:55.870Z,9.90
2022-11-09T07:27:27.796Z,10.00
2022-11-09T07:29:55.287Z,10.20
2022-11-09T07:32:35.335Z,10.40
2022-11-09T07:35:09.961Z,10.70
2022-11-09T07:37:37.956Z,11.00
2022-11-09T07:40:05.674Z,11.20
2022-11-09T07:42:32.536Z,11.50
2022-11-09T07:44:59.758Z,11.70
2022-11-09T07:47:26.671Z,12.00
2022-11-09T07:49:53.565Z,12.30
2022-11-09T07:52:20.445Z,12.50
2022-11-09T07:54:51.981Z,12.90
2022-11-09T07:57:19.394Z,13.10
2022-11-09T07:59:46.204Z,13.30
2022-11-09T08:02:14.812Z,13.40
2022-11-09T08:04:41.711Z,13.60
2022-11-09T08:07:08.615Z,13.80
2022-11-09T08:09:35.419Z,14.00
2022-11-09T08:12:02.782Z,14.10
2022-11-09T08:14:29.544Z,14.30
2022-11-09T08:16:56.704Z,14.50
2022-11-09T08:19:23.509Z,14.70
2022-11-09T08:21:50.747Z,14.90
2022-11-09T08:24:17.549Z,15.00
2022-11-09T08:26:44.323Z,16.70
2022-11-09T08:29:13.543Z,15.30
2022-11-09T08:31:40.327Z,15.30
2022-11-09T08:34:10.768Z,15.40
2022-11-09T08:36:37.649Z,15.40
2022-11-09T08:39:04.456Z,15.40
2022-11-09T08:41:31.918Z,15.50
2022-11-09T08:43:58.743Z,15.70
2022-11-09T08:46:25.819Z,15.80
2022-11-09T08:48:52.673Z,16.00
2022-11-09T08:51:19.732Z,16.30
2022-11-09T08:53:46.563Z,16.40
2022-11-09T08:56:18.306Z,16.60
2022-11-09T08:58:46.045Z,16.70
2022-11-09T09:01:16.965Z,16.80
2022-11-09T09:03:44.473Z,16.80
2022-11-09T09:06:11.215Z,16.80
2022-11-09T09:08:38.039Z,16.80
2022-11-09T09:11:06.074Z,16.90
2022-11-09T09:13:34.481Z,17.10
2022-11-09T09:16:14.678Z,17.30
2022-11-09T09:18:41.630Z,17.50
2022-11-09T09:21:09.588Z,17.70
2022-11-09T09:23:36.776Z,17.90
2022-11-09T09:26:04.328Z,18.10
2022-11-09T09:28:31.376Z,18.40
2022-11-09T09:30:59.831Z,18.70
2022-11-09T09:33:27.871Z,19.10
2022-11-09T09:35:58.851Z,19.80
2022-11-09T09:38:27.507Z,20.50
2022-11-09T09:41:03.421Z,21.10
2022-11-09T09:43:43.158Z,21.40
2022-11-09T09:46:35.058Z,21.60
2022-11-09T09:49:07.080Z,22.00
2022-11-09T09:51:40.659Z,22.30
2022-11-09T09:54:15.325Z,22.60
2022-11-09T09:56:45.426Z,22.80
2022-11-09T09:59:19.450Z,23.20
2022-11-09T10:01:48.139Z,23.30
2022-11-09T10:04:37.797Z,23.30
2022-11-09T10:07:29.618Z,23.70
2022-11-09T10:10:02.707Z,23.90
2022-11-09T10:12:29.812Z,24.20
2022-11-09T10:15:05.720Z,24.70
2022-11-09T10:17:54.244Z,25.20
2022-11-09T10:20:29.068Z,26.00
2022-11-09T10:23:16.665Z,26.70
2022-11-09T10:26:03.626Z,27.40
2022-11-09T10:28:54.327Z,27.80
2022-11-09T10:31:23.292Z,28.00
2022-11-09T10:33:58.082Z,28.10
2022-11-09T10:36:27.719Z,28.30
2022-11-09T10:38:58.971Z,28.50
2022-11-09T10:41:44.380Z,29.00
2022-11-09T10:44:17.670Z,29.40
2022-11-09T10:47:03.346Z,29.90
2022-11-09T10:49:30.716Z,30.30
2022-11-09T10:51:57.547Z,30.30
2022-11-09T10:54:29.539Z,30.50
2022-11-09T10:57:06.816Z,30.80
2022-11-09T10:59:50.451Z,31.20
2022-11-09T11:02:26.797Z,31.80
2022-11-09T11:05:06.005Z,32.40
2022-11-09T11:07:35.333Z,32.80
2022-11-09T11:10:22.790Z,33.20
2022-11-09T11:13:01.774Z,33.80
2022-11-09T11:15:36.338Z,34.10
2022-11-09T11:18:11.095Z,34.80
2022-11-09T11:20:38.554Z,35.10
2022-11-09T11:23:15.300Z,35.40
2022-11-09T11:25:54.769Z,35.90
2022-11-09T11:28:40.439Z,36.20
2022-11-09T11:31:14.018Z,36.00
2022-11-09T11:33:41.059Z,35.40
2022-11-09T11:36:07.885Z,35.00
2022-11-09T11:38:43.554Z,35.10
2022-11-09T11:41:16.553Z,34.80
2022-11-09T11:43:49.378Z,34.40
2022-11-09T11:46:28.898Z,34.90
2022-11-09T11:49:18.615Z,35.70
2022-11-09T11:51:55.147Z,36.30
2022-11-09T11:54:31.246Z,36.30
2022-11-09T11:57:18.311Z,36.10
2022-11-09T12:00:10.061Z,36.10
2022-11-09T12:03:06.542Z,35.40
2022-11-09T12:05:52.602Z,34.10
2022-11-09T12:08:39.068Z,33.20
2022-11-09T12:11:19.795Z,32.80
2022-11-09T12:14:18.370Z,32.10
2022-11-09T12:17:14.854Z,31.50
2022-11-09T12:20:20.055Z,31.50
2022-11-09T12:23:15.506Z,31.50
2022-11-09T12:26:01.337Z,32.20
2022-11-09T12:28:55.857Z,32.60
2022-11-09T12:31:25.528Z,33.40
2022-11-09T12:33:58.916Z,33.60
2022-11-09T12:36:44.418Z,33.30
2022-11-09T12:39:33.684Z,32.70
2022-11-09T12:42:17.574Z,32.00
2022-11-09T12:45:06.914Z,31.50
2022-11-09T12:47:45.085Z,30.50
2022-11-09T12:50:17.716Z,29.60
2022-11-09T12:52:47.436Z,29.20
2022-11-09T12:55:17.156Z,29.10
2022-11-09T12:57:48.431Z,29.10
2022-11-09T13:00:33.802Z,29.30
2022-11-09T13:03:04.621Z,29.40
2022-11-09T13:05:37.678Z,29.50
2022-11-09T13:08:15.971Z,30.40
2022-11-09T13:10:43.630Z,31.50
2022-11-09T13:13:10.778Z,32.50
2022-11-09T13:15:39.517Z,33.50
2022-11-09T13:18:22.844Z,34.50
2022-11-09T13:20:56.440Z,34.80
2022-11-09T13:26:32.961Z,35.60
2022-11-09T13:29:19.253Z,36.50
2022-11-09T13:32:01.866Z,37.10
2022-11-09T13:34:48.816Z,37.60
2022-11-09T13:37:37.856Z,38.00
2022-11-09T13:40:32.850Z,38.20
2022-11-09T13:43:15.570Z,38.10
2022-11-09T13:45:44.361Z,38.00
2022-11-09T13:48:29.886Z,37.70
2022-11-09T13:51:02.849Z,37.50
2022-11-09T13:53:37.932Z,37.40
2022-11-09T13:56:27.149Z,37.30
2022-11-09T13:59:10.138Z,37.50
2022-11-09T14:01:47.406Z,37.50
2022-11-09T14:04:30.751Z,37.60
2022-11-09T14:07:10.811Z,37.20
2022-11-09T14:09:54.302Z,37.00
2022-11-09T14:12:42.286Z,36.30
2022-11-09T14:15:33.961Z,35.20
2022-11-09T14:18:38.430Z,34.40
2022-11-09T14:21:23.664Z,33.90
2022-11-09T14:23:51.070Z,33.90
2022-11-09T14:26:23.955Z,33.70
2022-11-09T14:28:50.980Z,34.60
2022-11-09T14:31:30.995Z,33.10
2022-11-09T14:34:03.485Z,32.70
2022-11-09T14:36:34.719Z,32.30
2022-11-09T14:39:04.128Z,32.40
2022-11-09T14:41:31.187Z,32.10
2022-11-09T14:44:00.493Z,31.60
2022-11-09T14:46:30.831Z,31.00
2022-11-09T14:49:03.196Z,30.00
2022-11-09T14:51:38.402Z,29.20
2022-11-09T14:54:13.355Z,29.20
2022-11-09T14:56:42.542Z,29.60
2022-11-09T14:59:16.675Z,29.70
2022-11-09T15:02:09.660Z,29.80
2022-11-09T15:05:28.484Z,29.20
2022-11-09T15:07:55.528Z,28.20
2022-11-09T15:10:24.239Z,27.20
2022-11-09T15:12:56.292Z,26.40
2022-11-09T15:15:26.397Z,25.80
2022-11-09T15:17:53.308Z,25.00
2022-11-09T15:20:20.222Z,24.30
2022-11-09T15:22:54.988Z,23.60
2022-11-09T15:25:29.632Z,23.10
2022-11-09T15:28:09.005Z,22.60
2022-11-09T15:30:45.476Z,22.20
2022-11-09T15:33:20.117Z,21.90
2022-11-09T15:36:27.247Z,21.50
2022-11-09T15:39:16.247Z,21.20
2022-11-09T15:41:43.035Z,20.80
2022-11-09T15:44:12.974Z,20.40
2022-11-09T15:46:46.672Z,20.10
2022-11-09T15:49:21.452Z,19.80
2022-11-09T15:51:48.795Z,19.50
2022-11-09T15:54:16.619Z,19.30
2022-11-09T15:56:43.871Z,19.20
2022-11-09T15:59:21.254Z,19.00
2022-11-09T16:01:48.544Z,18.80
2022-11-09T16:04:15.840Z,18.70
2022-11-09T16:06:46.595Z,18.50
2022-11-09T16:09:14.078Z,18.30
2022-11-09T16:11:41.161Z,18.00
2022-11-09T16:14:08.226Z,17.80
2022-11-09T16:16:35.220Z,17.60
2022-11-09T16:19:02.191Z,17.40
2022-11-09T16:21:29.370Z,17.30
2022-11-09T16:23:58.720Z,17.10
2022-11-09T16:26:26.200Z,16.90
2022-11-09T16:28:55.011Z,16.80
2022-11-09T16:34:09.066Z,16.60
2022-11-09T16:36:38.293Z,16.40
2022-11-09T16:39:12.585Z,16.20
2022-11-09T16:41:41.515Z,16.20
2022-11-09T16:44:08.851Z,16.10
2022-11-09T16:46:36.041Z,16.00
2022-11-09T16:49:03.509Z,15.90
2022-11-09T16:51:31.063Z,15.80
2022-11-09T16:53:58.403Z,15.80
2022-11-09T16:56:25.321Z,15.70
2022-11-09T16:58:52.443Z,15.70
2022-11-09T17:01:23.271Z,15.60
2022-11-09T17:03:50.661Z,15.50
2022-11-09T17:06:17.780Z,15.40
2022-11-09T17:08:45.208Z,15.40
2022-11-09T17:11:14.863Z,15.30
2022-11-09T17:13:41.709Z,15.20
2022-11-09T17:16:11.503Z,15.20
2022-11-09T17:18:38.874Z,15.20
2022-11-09T17:21:11.085Z,15.20
2022-11-09T17:23:38.314Z,15.20
2022-11-09T17:26:06.716Z,15.10
2022-11-09T17:28:36.729Z,15.00
2022-11-09T17:31:14.762Z,15.00
2022-11-09T17:33:41.611Z,14.90
2022-11-09T17:36:11.401Z,14.90
2022-11-09T17:38:38.914Z,14.90
2022-11-09T17:41:08.475Z,14.80
2022-11-09T17:43:37.445Z,14.80
2022-11-09T17:46:06.228Z,14.90
2022-11-09T17:48:34.890Z,14.90
2022-11-09T17:51:02.389Z,14.90
2022-11-09T17:53:30.255Z,14.80
2022-11-09T17:55:57.700Z,14.70
2022-11-09T17:58:25.293Z,14.70
2022-11-09T18:00:52.839Z,14.70
2022-11-09T18:03:19.851Z,14.60
2022-11-09T18:05:46.782Z,14.60
2022-11-09T18:08:14.943Z,14.50
2022-11-09T18:10:44.002Z,14.50
2022-11-09T18:13:11.832Z,14.30
2022-11-09T18:15:39.730Z,14.30
2022-11-09T18:18:06.759Z,14.30
2022-11-09T18:20:34.119Z,14.20
2022-11-09T18:23:01.332Z,14.20
2022-11-09T18:25:28.808Z,14.10
2022-11-09T18:27:55.614Z,14.10
2022-11-09T18:30:22.835Z,14.10
2022-11-09T18:32:50.320Z,14.10
2022-11-09T18:35:17.297Z,14.10
2022-11-09T18:37:47.265Z,14.10
2022-11-09T18:40:16.020Z,14.00
2022-11-09T18:42:43.215Z,13.90
2022-11-09T18:45:10.650Z,13.80
2022-11-09T18:47:37.512Z,13.70
2022-11-09T18:50:04.652Z,13.70
2022-11-09T18:52:33.331Z,13.70
2022-11-09T18:55:00.251Z,13.60
2022-11-09T18:57:27.131Z,13.50
2022-11-09T18:59:54.444Z,13.50
2022-11-09T19:02:21.493Z,13.50
2022-11-09T19:04:48.442Z,13.40
2022-11-09T19:07:15.685Z,13.30
2022-11-09T19:09:42.958Z,13.30
2022-11-09T19:12:11.023Z,13.10
2022-11-09T19:14:41.186Z,13.10
2022-11-09T19:17:13.175Z,13.10
2022-11-09T19:19:42.224Z,13.00
2022-11-09T19:22:17.766Z,13.00
2022-11-09T19:24:45.544Z,13.00
2022-11-09T19:27:12.820Z,13.00
2022-11-09T19:29:39.649Z,12.90
2022-11-09T19:32:06.515Z,12.90
2022-11-09T19:34:33.291Z,12.90
2022-11-09T19:37:00.539Z,13.00
2022-11-09T19:39:32.659Z,13.00
2022-11-09T19:42:01.002Z,13.00
2022-11-09T19:44:27.773Z,13.00
2022-11-09T19:46:54.974Z,13.00
2022-11-09T19:49:22.181Z,12.90
2022-11-09T19:51:49.035Z,13.00
2022-11-09T19:54:16.249Z,13.00
2022-11-09T19:56:43.143Z,13.10
2022-11-09T19:59:14.492Z,13.10
2022-11-09T20:01:42.026Z,13.10
2022-11-09T20:04:10.722Z,14.80
2022-11-09T20:06:40.791Z,12.90
2022-11-09T20:09:07.596Z,12.90
2022-11-09T20:11:53.102Z,12.90
2022-11-09T20:14:21.263Z,12.80
2022-11-09T20:16:49.233Z,12.70
2022-11-09T20:19:16.737Z,12.60
2022-11-09T20:21:44.595Z,12.50
2022-11-09T20:24:12.541Z,12.40
2022-11-09T20:26:40.468Z,12.30
2022-11-09T20:29:07.449Z,12.30
2022-11-09T20:31:34.418Z,12.30
2022-11-09T20:34:02.463Z,12.40
2022-11-09T20:36:29.645Z,12.50
2022-11-09T20:38:56.565Z,12.40
2022-11-09T20:41:25.592Z,12.40
2022-11-09T20:43:53.271Z,12.40
2022-11-09T20:46:24.435Z,12.40
2022-11-09T20:48:54.508Z,12.50
2022-11-09T20:51:23.641Z,12.40
2022-11-09T20:53:50.923Z,12.40
2022-11-09T20:56:18.869Z,12.30
2022-11-09T20:58:46.452Z,12.20
2022-11-09T21:01:15.267Z,12.10
2022-11-09T21:03:42.979Z,12.10
2022-11-09T21:06:11.625Z,12.20
2022-11-09T21:08:38.692Z,12.20
2022-11-09T21:11:07.469Z,12.10
2022-11-09T21:13:34.238Z,12.10
2022-11-09T21:16:12.883Z,12.00
2022-11-09T21:18:39.959Z,12.00
2022-11-09T21:21:12.563Z,12.10
2022-11-09T21:23:58.846Z,12.10
2022-11-09T21:26:44.487Z,12.10
2022-11-09T21:29:32.882Z,12.10
2022-11-09T21:31:59.766Z,12.10
2022-11-09T21:34:31.442Z,12.00
2022-11-09T21:37:00.939Z,11.90
2022-11-09T21:39:27.831Z,11.90
2022-11-09T21:41:54.776Z,11.70
2022-11-09T21:44:21.883Z,11.70
2022-11-09T21:46:48.769Z,11.70
2022-11-09T21:49:15.666Z,11.60
2022-11-09T21:51:42.591Z,11.60
2022-11-09T21:54:10.564Z,11.70
2022-11-09T21:56:37.474Z,11.60
2022-11-09T21:59:04.960Z,11.60
2022-11-09T22:01:32.381Z,11.70
2022-11-09T22:03:59.690Z,11.70
2022-11-09T22:06:27.376Z,11.80
2022-11-09T22:08:54.474Z,11.80
2022-11-09T22:11:45.837Z,11.80
2022-11-09T22:14:33.480Z,11.90
2022-11-09T22:17:01.256Z,11.70
2022-11-09T22:19:47.081Z,11.70
2022-11-09T22:22:15.237Z,11.70
2022-11-09T22:24:42.434Z,11.70
2022-11-09T22:27:09.594Z,11.70
2022-11-09T22:29:36.890Z,11.80
2022-11-09T22:32:04.549Z,11.70
2022-11-09T22:34:31.552Z,11.60
2022-11-09T22:37:00.864Z,11.60
2022-11-09T22:39:27.805Z,11.60
2022-11-09T22:41:55.087Z,11.60
2022-11-09T22:44:21.906Z,11.60
2022-11-09T22:46:49.237Z,11.60
2022-11-09T22:49:18.196Z,11.60
2022-11-09T22:51:45.516Z,11.60
2022-11-09T22:54:12.302Z,10.50
2022-11-09T22:56:39.205Z,11.60
2022-11-09T22:59:06.295Z,11.50
2022-11-09T23:01:33.398Z,11.40
2022-11-09T23:04:00.315Z,11.40
2022-11-09T23:06:27.154Z,11.20
2022-11-09T23:08:54.474Z,11.20
2022-11-09T23:11:23.217Z,11.20
2022-11-09T23:13:52.705Z,11.20
2022-11-09T23:16:19.721Z,11.10
2022-11-09T23:18:56.377Z,11.10
2022-11-09T23:21:32.017Z,11.10
2022-11-09T23:24:02.340Z,11.00
2022-11-09T23:26:30.481Z,10.90
2022-11-09T23:28:57.444Z,10.90
2022-11-09T23:31:24.819Z,11.00
2022-11-09T23:33:54.437Z,11.00
2022-11-09T23:36:22.638Z,11.00
2022-11-09T23:38:50.580Z,11.00
2022-11-09T23:41:18.106Z,10.90
2022-11-09T23:43:49.209Z,11.00
2022-11-09T23:46:17.178Z,11.00
2022-11-09T23:48:43.998Z,11.00
2022-11-09T23:51:10.860Z,11.00
2022-11-09T23:53:38.119Z,11.00
2022-11-09T23:56:10.197Z,11.00
2022-11-09T23:58:37.738Z,11.00
